createdAt,value
2018-11-29T00:00:41.400Z,18.29
2018-11-29T00:03:10.881Z,18.32
2018-11-29T00:05:39.589Z,18.38
2018-11-29T00:08:09.459Z,18.38
2018-11-29T00:10:38.896Z,18.36
2018-11-29T00:13:08.752Z,18.37
2018-11-29T00:15:36.420Z,18.39
2018-11-29T00:18:04.116Z,18.39
2018-11-29T00:20:32.164Z,18.41
2018-11-29T00:22:59.964Z,18.41
2018-11-29T00:25:30.319Z,18.42
2018-11-29T00:27:58.437Z,18.42
2018-11-29T00:30:26.128Z,18.41
2018-11-29T00:32:54.582Z,18.40
2018-11-29T00:35:22.198Z,18.39
2018-11-29T00:37:58.430Z,18.34
2018-11-29T00:40:26.163Z,18.31
2018-11-29T00:42:53.851Z,18.31
2018-11-29T00:45:23.223Z,18.28
2018-11-29T00:47:51.276Z,18.27
2018-11-29T00:50:19.342Z,18.24
2018-11-29T00:52:47.791Z,18.21
2018-11-29T00:55:17.262Z,18.18
2018-11-29T00:57:44.895Z,18.16
2018-11-29T01:00:19.032Z,18.19
2018-11-29T01:02:46.674Z,18.17
2018-11-29T01:05:14.382Z,18.14
2018-11-29T01:07:42.209Z,18.17
2018-11-29T01:10:12.670Z,18.18
2018-11-29T01:12:40.635Z,18.17
2018-11-29T01:15:10.431Z,18.15
2018-11-29T01:17:38.051Z,18.10
2018-11-29T01:20:08.256Z,18.11
2018-11-29T01:22:35.871Z,18.09
2018-11-29T01:25:03.517Z,18.11
2018-11-29T01:27:31.207Z,18.12
2018-11-29T01:29:58.872Z,18.10
2018-11-29T01:32:26.530Z,18.08
2018-11-29T01:34:54.183Z,18.09
2018-11-29T01:37:21.946Z,18.12
2018-11-29T01:39:49.567Z,18.11
2018-11-29T01:42:17.203Z,18.09
2018-11-29T01:44:44.872Z,18.08
2018-11-29T01:47:12.503Z,18.09
2018-11-29T01:49:40.197Z,18.12
2018-11-29T01:52:07.819Z,18.11
2018-11-29T01:54:35.484Z,18.11
2018-11-29T01:57:03.121Z,18.10
2018-11-29T01:59:30.812Z,18.09
2018-11-29T02:01:58.473Z,18.06
2018-11-29T02:04:26.118Z,18.08
2018-11-29T02:06:53.840Z,18.12
2018-11-29T02:09:21.478Z,18.15
2018-11-29T02:11:49.175Z,18.17
2018-11-29T02:14:16.863Z,18.18
2018-11-29T02:16:44.510Z,18.17
2018-11-29T02:19:18.724Z,18.17
2018-11-29T02:21:46.387Z,18.17
2018-11-29T02:24:14.035Z,18.17
2018-11-29T02:26:41.693Z,18.17
2018-11-29T02:29:09.339Z,18.14
2018-11-29T02:31:36.991Z,18.13
2018-11-29T02:34:05.430Z,18.13
2018-11-29T02:36:33.148Z,18.14
2018-11-29T02:39:00.903Z,18.14
2018-11-29T02:41:28.552Z,18.16
2018-11-29T02:43:56.226Z,18.18
2018-11-29T02:46:23.849Z,18.22
2018-11-29T02:48:51.546Z,18.21
2018-11-29T02:51:19.174Z,18.20
2018-11-29T02:53:46.783Z,18.17
2018-11-29T02:56:14.457Z,18.16
2018-11-29T02:58:42.210Z,18.13
2018-11-29T03:01:09.839Z,18.13
2018-11-29T03:03:37.490Z,18.07
2018-11-29T03:06:05.362Z,18.08
2018-11-29T03:08:32.985Z,18.08
2018-11-29T03:11:00.634Z,18.06
2018-11-29T03:13:28.292Z,18.10
2018-11-29T03:15:55.987Z,18.10
2018-11-29T03:18:23.630Z,18.13
2018-11-29T03:20:51.257Z,18.12
2018-11-29T03:23:18.962Z,18.10
2018-11-29T03:25:46.624Z,18.09
2018-11-29T03:28:14.287Z,18.09
2018-11-29T03:30:41.971Z,18.09
2018-11-29T03:33:09.650Z,18.10
2018-11-29T03:35:37.297Z,18.11
2018-11-29T03:38:04.988Z,18.11
2018-11-29T03:40:32.694Z,18.11
2018-11-29T03:43:00.313Z,18.09
2018-11-29T03:45:27.988Z,18.07
2018-11-29T03:47:55.608Z,18.09
2018-11-29T03:50:23.262Z,18.08
2018-11-29T03:52:50.944Z,18.10
2018-11-29T03:55:18.608Z,18.09
2018-11-29T03:57:46.248Z,18.07
2018-11-29T04:00:14.727Z,18.05
2018-11-29T04:02:42.573Z,18.06
2018-11-29T04:05:10.195Z,18.03
2018-11-29T04:07:37.874Z,17.99
2018-11-29T04:10:10.139Z,17.98
2018-11-29T04:12:37.841Z,17.97
2018-11-29T04:15:06.459Z,17.95
2018-11-29T04:17:40.372Z,18.00
2018-11-29T04:20:01.759Z,18.01
2018-11-29T04:22:29.415Z,17.95
2018-11-29T04:24:57.112Z,17.95
2018-11-29T04:27:24.759Z,17.94
2018-11-29T04:29:52.387Z,17.98
2018-11-29T04:32:20.049Z,17.97
2018-11-29T04:34:47.775Z,18.01
2018-11-29T04:37:15.413Z,18.03
2018-11-29T04:39:43.077Z,18.07
2018-11-29T04:42:10.768Z,18.10
2018-11-29T04:44:38.425Z,18.10
2018-11-29T04:47:06.055Z,18.11
2018-11-29T04:49:33.667Z,18.12
2018-11-29T04:52:01.339Z,18.14
2018-11-29T04:54:29.012Z,18.16
2018-11-29T04:56:56.651Z,18.13
2018-11-29T04:59:24.312Z,18.14
2018-11-29T05:01:51.927Z,18.11
2018-11-29T05:04:19.601Z,18.14
2018-11-29T05:06:47.368Z,18.13
2018-11-29T05:09:15.034Z,18.16
2018-11-29T05:11:42.687Z,18.19
2018-11-29T05:14:10.338Z,18.21
2018-11-29T05:16:37.995Z,18.20
2018-11-29T05:19:05.643Z,18.21
2018-11-29T05:21:33.382Z,18.24
2018-11-29T05:24:01.052Z,18.27
2018-11-29T05:26:28.712Z,18.29
2018-11-29T05:28:56.399Z,18.30
2018-11-29T05:31:24.166Z,18.34
2018-11-29T05:33:51.804Z,18.35
2018-11-29T05:36:19.437Z,18.36
2018-11-29T05:38:47.177Z,18.38
2018-11-29T05:41:14.807Z,18.39
2018-11-29T05:43:42.533Z,18.37
2018-11-29T05:46:10.458Z,18.33
2018-11-29T05:48:38.159Z,18.32
2018-11-29T05:51:05.805Z,18.31
2018-11-29T05:53:34.637Z,18.35
2018-11-29T05:56:02.273Z,18.36
2018-11-29T05:58:29.942Z,18.35
2018-11-29T06:01:00.105Z,18.33
2018-11-29T06:03:27.846Z,18.34
2018-11-29T06:05:55.461Z,18.31
2018-11-29T06:08:23.252Z,18.32
2018-11-29T06:10:50.945Z,18.34
2018-11-29T06:13:18.598Z,18.37
2018-11-29T06:15:46.270Z,18.35
2018-11-29T06:18:13.948Z,18.34
2018-11-29T06:20:41.661Z,18.34
2018-11-29T06:23:09.382Z,18.34
2018-11-29T06:25:37.046Z,18.34
2018-11-29T06:28:11.338Z,18.31
2018-11-29T06:30:39.025Z,18.26
2018-11-29T06:33:11.314Z,18.26
2018-11-29T06:35:41.222Z,18.29
2018-11-29T06:38:08.924Z,18.27
2018-11-29T06:40:36.745Z,18.25
2018-11-29T06:43:04.994Z,18.27
2018-11-29T06:45:33.017Z,18.29
2018-11-29T06:48:00.879Z,18.27
2018-11-29T06:50:29.338Z,18.27
2018-11-29T06:52:57.288Z,18.26
2018-11-29T06:55:25.893Z,18.27
2018-11-29T06:57:55.334Z,18.29
2018-11-29T07:00:27.136Z,18.31
2018-11-29T07:02:54.892Z,18.30
2018-11-29T07:05:22.566Z,18.31
2018-11-29T07:07:50.470Z,18.32
2018-11-29T07:10:22.727Z,18.34
2018-11-29T07:12:50.593Z,18.36
2018-11-29T07:15:18.243Z,18.33
2018-11-29T07:17:46.086Z,18.32
2018-11-29T07:20:14.867Z,18.34
2018-11-29T07:22:42.710Z,18.32
2018-11-29T07:25:10.594Z,18.33
2018-11-29T07:27:38.798Z,18.33
2018-11-29T07:30:11.099Z,18.34
2018-11-29T07:32:38.796Z,18.33
2018-11-29T07:35:07.351Z,18.31
2018-11-29T07:37:35.080Z,18.32
2018-11-29T07:40:03.826Z,18.29
2018-11-29T07:42:43.795Z,18.28
2018-11-29T07:45:12.893Z,18.27
2018-11-29T07:47:40.658Z,18.25
2018-11-29T07:50:15.211Z,18.24
2018-11-29T07:52:43.056Z,18.28
2018-11-29T07:55:14.085Z,18.29
2018-11-29T07:57:42.084Z,18.29
2018-11-29T08:00:11.933Z,18.27
2018-11-29T08:02:39.569Z,18.31
2018-11-29T08:05:08.572Z,18.32
2018-11-29T08:07:36.359Z,18.33
2018-11-29T08:10:05.207Z,18.32
2018-11-29T08:12:32.902Z,18.32
2018-11-29T08:15:00.594Z,18.34
2018-11-29T08:17:28.484Z,18.32
2018-11-29T08:19:56.276Z,18.31
2018-11-29T08:22:23.905Z,18.31
2018-11-29T08:24:51.568Z,18.29
2018-11-29T08:27:39.281Z,18.32
2018-11-29T08:30:09.246Z,18.32
2018-11-29T08:32:37.156Z,18.31
2018-11-29T08:35:05.122Z,18.32
2018-11-29T08:37:32.902Z,18.32
2018-11-29T08:40:00.592Z,18.31
2018-11-29T08:42:28.643Z,18.35
2018-11-29T08:44:56.348Z,18.37
2018-11-29T08:47:24.158Z,18.37
2018-11-29T08:49:51.872Z,18.37
2018-11-29T08:52:19.511Z,18.35
2018-11-29T08:54:47.211Z,18.38
2018-11-29T08:57:15.647Z,18.40
2018-11-29T08:59:42.608Z,18.37
2018-11-29T09:02:10.261Z,18.37
2018-11-29T09:04:58.460Z,18.38
2018-11-29T09:07:26.706Z,18.35
2018-11-29T09:09:54.446Z,18.35
2018-11-29T09:12:22.275Z,18.34
2018-11-29T09:14:49.913Z,18.33
2018-11-29T09:17:17.582Z,18.32
2018-11-29T09:19:45.245Z,18.32
2018-11-29T09:22:12.907Z,18.33
2018-11-29T09:24:40.614Z,18.32
2018-11-29T09:27:08.266Z,18.32
2018-11-29T09:29:36.035Z,18.31
2018-11-29T09:32:03.765Z,18.32
2018-11-29T09:34:33.353Z,18.30
2018-11-29T09:37:01.026Z,18.30
2018-11-29T09:39:28.720Z,18.34
2018-11-29T09:41:56.349Z,18.36
2018-11-29T09:44:24.203Z,18.35
2018-11-29T09:46:51.881Z,18.32
2018-11-29T09:49:19.689Z,18.33
2018-11-29T09:51:47.388Z,18.37
2018-11-29T09:54:15.214Z,18.35
2018-11-29T09:56:43.064Z,18.36
2018-11-29T09:59:10.785Z,18.37
2018-11-29T10:01:38.489Z,18.40
2018-11-29T10:04:09.556Z,18.39
2018-11-29T10:06:37.251Z,18.38
2018-11-29T10:09:08.020Z,18.37
2018-11-29T10:11:35.753Z,18.38
2018-11-29T10:16:37.591Z,18.38
2018-11-29T10:19:05.452Z,18.39
2018-11-29T10:21:33.102Z,18.40
2018-11-29T10:24:00.777Z,18.40
2018-11-29T10:26:28.481Z,18.41
2018-11-29T10:28:56.196Z,18.42
2018-11-29T10:31:23.964Z,18.42
2018-11-29T10:33:52.821Z,18.43
2018-11-29T10:36:20.610Z,18.42
2018-11-29T10:38:48.341Z,18.40
2018-11-29T10:41:15.996Z,18.43
2018-11-29T10:43:43.834Z,18.44
2018-11-29T10:46:11.516Z,18.47
2018-11-29T10:48:39.241Z,18.47
2018-11-29T10:51:07.119Z,18.47
2018-11-29T10:53:37.726Z,18.47
2018-11-29T10:56:02.957Z,18.48
2018-11-29T10:58:30.785Z,18.51
2018-11-29T11:01:03.987Z,18.55
2018-11-29T11:03:31.651Z,18.56
2018-11-29T11:05:59.452Z,18.55
2018-11-29T11:08:27.098Z,18.52
2018-11-29T11:10:54.801Z,18.52
2018-11-29T11:13:22.464Z,18.57
2018-11-29T11:15:50.120Z,18.66
2018-11-29T11:18:18.247Z,18.67
2018-11-29T11:20:46.192Z,18.67
2018-11-29T11:23:14.652Z,18.65
2018-11-29T11:25:42.512Z,18.69
2018-11-29T11:28:10.398Z,18.69
2018-11-29T11:30:40.613Z,18.69
2018-11-29T11:33:08.287Z,18.70
2018-11-29T11:35:36.208Z,18.70
2018-11-29T11:38:03.915Z,18.70
2018-11-29T11:40:31.703Z,18.66
2018-11-29T11:42:59.413Z,18.67
2018-11-29T11:45:28.008Z,18.66
2018-11-29T11:47:55.712Z,18.64
2018-11-29T11:50:24.127Z,18.68
2018-11-29T11:52:52.377Z,18.69
2018-11-29T11:55:20.090Z,18.70
2018-11-29T11:57:48.065Z,18.74
2018-11-29T12:00:23.331Z,18.76
2018-11-29T12:02:52.581Z,18.76
2018-11-29T12:05:20.315Z,18.78
2018-11-29T12:07:47.983Z,18.77
2018-11-29T12:10:15.977Z,18.76
2018-11-29T12:12:43.707Z,18.76
2018-11-29T12:15:12.416Z,18.74
2018-11-29T12:17:40.405Z,18.74
2018-11-29T12:20:09.797Z,18.74
2018-11-29T12:22:37.519Z,18.72
2018-11-29T12:25:06.552Z,18.75
2018-11-29T12:27:34.243Z,18.77
2018-11-29T12:30:02.015Z,18.78
2018-11-29T12:32:29.661Z,18.78
2018-11-29T12:34:57.288Z,18.77
2018-11-29T12:37:25.204Z,18.77
2018-11-29T12:39:52.844Z,18.75
2018-11-29T12:42:20.494Z,18.74
2018-11-29T12:44:48.254Z,18.72
2018-11-29T12:47:15.940Z,18.71
2018-11-29T12:49:43.584Z,18.67
2018-11-29T12:52:11.253Z,18.67
2018-11-29T12:54:38.955Z,18.67
2018-11-29T12:57:06.612Z,18.67
2018-11-29T12:59:34.416Z,18.69
2018-11-29T13:02:02.137Z,18.71
2018-11-29T13:04:29.794Z,18.70
2018-11-29T13:06:57.494Z,18.69
2018-11-29T13:09:25.143Z,18.68
2018-11-29T13:11:52.918Z,18.67
2018-11-29T13:14:20.523Z,18.70
2018-11-29T13:16:48.250Z,18.72
2018-11-29T13:19:16.111Z,18.74
2018-11-29T13:21:43.780Z,18.74
2018-11-29T13:24:11.524Z,18.77
2018-11-29T13:26:39.164Z,18.81
2018-11-29T13:29:06.784Z,18.82
2018-11-29T13:31:34.438Z,18.82
2018-11-29T13:34:02.059Z,18.82
2018-11-29T13:36:29.779Z,18.84
2018-11-29T13:38:57.375Z,18.85
2018-11-29T13:41:25.019Z,18.84
2018-11-29T13:43:52.763Z,18.86
2018-11-29T13:46:20.443Z,18.83
2018-11-29T13:48:48.158Z,18.83
2018-11-29T13:51:15.806Z,18.80
2018-11-29T13:53:43.604Z,18.74
2018-11-29T13:56:11.265Z,18.73
2018-11-29T13:58:39.021Z,18.73
2018-11-29T14:01:06.809Z,18.71
2018-11-29T14:03:34.688Z,18.71
2018-11-29T14:06:02.327Z,18.70
2018-11-29T14:08:30.124Z,18.70
2018-11-29T14:10:58.091Z,18.71
2018-11-29T14:13:25.487Z,18.71
2018-11-29T14:15:53.169Z,18.69
2018-11-29T14:18:20.826Z,18.69
2018-11-29T14:20:48.669Z,18.68
2018-11-29T14:23:16.290Z,18.69
2018-11-29T14:25:43.908Z,18.71
2018-11-29T14:28:11.628Z,18.70
2018-11-29T14:30:39.298Z,18.69
2018-11-29T14:33:07.350Z,18.70
2018-11-29T14:35:34.999Z,18.68
2018-11-29T14:38:02.669Z,18.68
2018-11-29T14:40:32.741Z,18.70
2018-11-29T14:43:00.372Z,18.68
2018-11-29T14:45:28.141Z,18.67
2018-11-29T14:47:56.014Z,18.65
2018-11-29T14:50:38.505Z,18.67
2018-11-29T14:53:07.248Z,18.67
2018-11-29T14:55:35.362Z,18.64
2018-11-29T14:58:03.063Z,18.63
2018-11-29T15:00:30.686Z,18.63
2018-11-29T15:02:59.013Z,18.61
2018-11-29T15:05:27.848Z,18.63
2018-11-29T15:07:55.500Z,18.64
2018-11-29T15:10:23.272Z,18.62
2018-11-29T15:12:50.948Z,18.63
2018-11-29T15:15:18.605Z,18.62
2018-11-29T15:17:47.068Z,18.62
2018-11-29T15:20:18.990Z,18.60
2018-11-29T15:22:47.328Z,18.61
2018-11-29T15:25:14.322Z,18.57
2018-11-29T15:27:42.028Z,18.58
2018-11-29T15:30:12.953Z,18.60
2018-11-29T15:32:40.626Z,18.59
2018-11-29T15:35:08.512Z,18.57
2018-11-29T15:37:36.365Z,18.59
2018-11-29T15:40:05.642Z,18.61
2018-11-29T15:42:33.511Z,18.64
2018-11-29T15:45:01.200Z,18.63
2018-11-29T15:47:28.842Z,18.64
2018-11-29T15:49:56.890Z,18.66
2018-11-29T15:52:24.541Z,18.64
2018-11-29T15:54:52.273Z,18.65
2018-11-29T15:57:19.908Z,18.66
2018-11-29T15:59:47.557Z,18.65
2018-11-29T16:02:15.203Z,18.65
2018-11-29T16:04:42.844Z,18.64
2018-11-29T16:07:10.496Z,18.65
2018-11-29T16:09:38.271Z,18.65
2018-11-29T16:12:06.087Z,18.65
2018-11-29T16:14:33.734Z,18.65
2018-11-29T16:17:01.372Z,18.66
2018-11-29T16:19:29.007Z,18.64
2018-11-29T16:21:56.696Z,18.64
2018-11-29T16:24:24.264Z,18.64
2018-11-29T16:26:52.007Z,18.63
2018-11-29T16:29:19.606Z,18.64
2018-11-29T16:31:47.294Z,18.64
2018-11-29T16:34:14.949Z,18.62
2018-11-29T16:36:42.578Z,18.62
2018-11-29T16:39:10.355Z,18.63
2018-11-29T16:41:37.972Z,18.63
2018-11-29T16:44:05.634Z,18.63
2018-11-29T16:46:33.264Z,18.64
2018-11-29T16:49:02.893Z,18.62
2018-11-29T16:51:28.724Z,18.62
2018-11-29T16:53:56.390Z,18.65
2018-11-29T16:56:24.101Z,18.67
2018-11-29T16:58:51.740Z,18.68
2018-11-29T17:01:19.370Z,18.68
2018-11-29T17:03:47.067Z,18.67
2018-11-29T17:06:14.721Z,18.69
2018-11-29T17:08:42.422Z,18.68
2018-11-29T17:11:10.102Z,18.69
2018-11-29T17:13:37.728Z,18.70
2018-11-29T17:16:05.901Z,18.70
2018-11-29T17:18:33.559Z,18.68
2018-11-29T17:21:01.241Z,18.67
2018-11-29T17:23:28.895Z,18.66
2018-11-29T17:25:56.603Z,18.68
2018-11-29T17:28:24.235Z,18.67
2018-11-29T17:30:51.896Z,18.66
2018-11-29T17:33:19.547Z,18.64
2018-11-29T17:35:47.177Z,18.65
2018-11-29T17:38:14.810Z,18.68
2018-11-29T17:40:42.413Z,18.66
2018-11-29T17:43:10.085Z,18.67
2018-11-29T17:45:37.920Z,18.68
2018-11-29T17:48:08.832Z,18.69
2018-11-29T17:50:40.695Z,18.69
2018-11-29T17:53:08.530Z,18.68
2018-11-29T17:55:36.252Z,18.68
2018-11-29T17:58:07.176Z,18.66
2018-11-29T18:00:34.837Z,18.65
2018-11-29T18:03:02.732Z,18.67
2018-11-29T18:05:30.433Z,18.68
2018-11-29T18:07:58.111Z,18.70
2018-11-29T18:10:27.079Z,18.72
2018-11-29T18:12:57.349Z,18.74
2018-11-29T18:15:26.372Z,18.74
2018-11-29T18:17:54.056Z,18.75
2018-11-29T18:20:21.644Z,18.71
2018-11-29T18:22:49.285Z,18.71
2018-11-29T18:25:17.204Z,18.68
2018-11-29T18:27:46.045Z,18.72
2018-11-29T18:30:14.726Z,18.72
2018-11-29T18:32:42.376Z,18.72
2018-11-29T18:35:11.447Z,18.75
2018-11-29T18:37:40.490Z,18.74
2018-11-29T18:40:10.021Z,18.74
2018-11-29T18:42:37.755Z,18.76
2018-11-29T18:45:08.232Z,18.76
2018-11-29T18:47:35.819Z,18.78
2018-11-29T18:50:03.512Z,18.77
2018-11-29T18:52:31.134Z,18.79
2018-11-29T18:55:00.379Z,18.80
2018-11-29T18:57:28.296Z,18.80
2018-11-29T18:59:56.952Z,18.78
2018-11-29T19:02:24.810Z,18.78
2018-11-29T19:04:52.472Z,18.79
2018-11-29T19:07:20.394Z,18.80
2018-11-29T19:09:48.013Z,18.78
2018-11-29T19:12:15.659Z,18.83
2018-11-29T19:14:44.256Z,18.86
2018-11-29T19:17:10.948Z,18.86
2018-11-29T19:19:38.659Z,18.84
2018-11-29T19:22:06.405Z,18.87
2018-11-29T19:24:34.035Z,18.88
2018-11-29T19:27:01.638Z,18.87
2018-11-29T19:29:29.296Z,18.90
2018-11-29T19:31:56.914Z,18.91
2018-11-29T19:34:24.608Z,18.90
2018-11-29T19:36:52.278Z,18.91
2018-11-29T19:39:19.942Z,18.93
2018-11-29T19:41:47.583Z,18.94
2018-11-29T19:44:15.256Z,18.93
2018-11-29T19:46:42.932Z,18.94
2018-11-29T19:49:10.714Z,18.92
2018-11-29T19:51:38.522Z,18.93
2018-11-29T19:54:06.154Z,18.94
2018-11-29T19:56:33.817Z,18.97
2018-11-29T19:59:01.486Z,18.97
2018-11-29T20:01:29.168Z,18.96
2018-11-29T20:03:56.825Z,18.96
2018-11-29T20:06:24.488Z,18.93
2018-11-29T20:08:52.257Z,18.93
2018-11-29T20:11:19.929Z,18.91
2018-11-29T20:13:47.617Z,18.89
2018-11-29T20:16:15.279Z,18.90
2018-11-29T20:18:42.916Z,18.93
2018-11-29T20:21:10.572Z,18.92
2018-11-29T20:23:38.482Z,18.95
2018-11-29T20:26:06.091Z,18.95
2018-11-29T20:28:33.713Z,18.96
2018-11-29T20:31:01.361Z,18.95
2018-11-29T20:33:29.001Z,18.95
2018-11-29T20:35:56.733Z,18.96
2018-11-29T20:38:24.364Z,18.98
2018-11-29T20:40:52.002Z,18.92
2018-11-29T20:43:19.674Z,18.91
2018-11-29T20:45:51.602Z,18.90
2018-11-29T20:48:21.575Z,18.91
2018-11-29T20:50:49.605Z,18.90
2018-11-29T20:53:19.176Z,18.90
2018-11-29T20:55:46.862Z,18.95
2018-11-29T20:58:14.506Z,18.94
2018-11-29T21:00:42.169Z,18.90
2018-11-29T21:03:10.216Z,18.88
2018-11-29T21:05:39.762Z,18.92
2018-11-29T21:08:08.257Z,18.91
2018-11-29T21:10:36.011Z,18.93
2018-11-29T21:13:06.103Z,18.93
2018-11-29T21:15:35.820Z,18.93
2018-11-29T21:18:03.495Z,18.90
2018-11-29T21:20:31.117Z,18.90
2018-11-29T21:22:59.208Z,18.92
2018-11-29T21:25:26.851Z,18.92
2018-11-29T21:27:54.496Z,18.92
2018-11-29T21:30:22.165Z,18.90
2018-11-29T21:32:50.068Z,18.84
2018-11-29T21:35:21.611Z,18.83
2018-11-29T21:37:50.084Z,18.83
2018-11-29T21:40:22.229Z,18.86
2018-11-29T21:42:50.046Z,18.87
2018-11-29T21:45:17.672Z,18.87
2018-11-29T21:47:45.303Z,18.86
2018-11-29T21:50:12.978Z,18.87
2018-11-29T21:52:40.659Z,18.87
2018-11-29T21:55:08.420Z,18.86
2018-11-29T21:57:36.170Z,18.85
2018-11-29T22:00:08.659Z,18.84
2018-11-29T22:02:41.639Z,18.85
2018-11-29T22:05:04.483Z,18.87
2018-11-29T22:07:32.229Z,18.89
2018-11-29T22:09:59.916Z,18.86
2018-11-29T22:12:27.725Z,18.86
2018-11-29T22:14:55.317Z,18.84
2018-11-29T22:17:22.971Z,18.83
2018-11-29T22:19:50.633Z,18.84
2018-11-29T22:22:18.322Z,18.85
2018-11-29T22:24:45.968Z,18.88
2018-11-29T22:27:13.655Z,18.86
2018-11-29T22:29:41.263Z,18.87
2018-11-29T22:32:08.938Z,18.88
2018-11-29T22:34:36.558Z,18.91
2018-11-29T22:37:04.237Z,18.96
2018-11-29T22:39:31.989Z,18.96
2018-11-29T22:41:59.679Z,18.96
2018-11-29T22:44:27.458Z,18.93
2018-11-29T22:46:55.123Z,18.93
2018-11-29T22:49:22.767Z,18.94
2018-11-29T22:51:50.556Z,18.96
2018-11-29T22:54:18.168Z,18.95
2018-11-29T22:56:45.851Z,18.92
2018-11-29T22:59:13.548Z,18.94
2018-11-29T23:01:41.313Z,18.94
2018-11-29T23:04:08.984Z,18.92
2018-11-29T23:06:36.605Z,18.94
2018-11-29T23:09:06.059Z,18.96
2018-11-29T23:11:33.701Z,18.93
2018-11-29T23:14:01.400Z,18.92
2018-11-29T23:16:29.046Z,18.93
2018-11-29T23:18:56.693Z,18.93
2018-11-29T23:21:24.353Z,18.93
2018-11-29T23:23:51.971Z,18.92
2018-11-29T23:26:19.659Z,18.95
2018-11-29T23:28:47.289Z,18.98
2018-11-29T23:31:14.948Z,18.98
2018-11-29T23:33:42.596Z,18.98
2018-11-29T23:45:17.165Z,18.94
2018-11-29T23:47:45.093Z,18.93
2018-11-29T23:50:14.744Z,18.93
2018-11-29T23:52:45.492Z,18.91
